createdAt,value
2019-05-09T00:01:23.739Z,40.90
2019-05-09T00:03:54.323Z,99.33
2019-05-09T00:06:23.938Z,77.07
2019-05-09T00:08:53.340Z,42.20
2019-05-09T00:11:24.465Z,80.80
2019-05-09T00:13:53.834Z,55.10
2019-05-09T00:16:23.621Z,47.07
2019-05-09T00:18:54.099Z,28.07
2019-05-09T00:21:28.760Z,29.30
2019-05-09T00:23:57.570Z,33.80
2019-05-09T00:26:26.423Z,26.20
2019-05-09T00:28:59.598Z,28.73
2019-05-09T00:31:45.079Z,30.73
2019-05-09T00:34:19.791Z,28.00
2019-05-09T00:36:48.616Z,29.67
2019-05-09T00:39:17.420Z,34.47
2019-05-09T00:41:46.241Z,39.10
2019-05-09T00:44:23.145Z,42.00
2019-05-09T00:46:57.973Z,35.37
2019-05-09T00:49:27.284Z,45.80
2019-05-09T00:51:56.117Z,51.67
2019-05-09T00:54:25.018Z,46.43
2019-05-09T00:56:54.053Z,45.60
2019-05-09T00:59:24.135Z,45.47
2019-05-09T01:01:54.276Z,35.80
2019-05-09T01:04:24.166Z,36.83
2019-05-09T01:06:54.036Z,36.97
2019-05-09T01:09:24.217Z,41.90
2019-05-09T01:11:53.437Z,34.07
2019-05-09T01:14:23.372Z,41.67
2019-05-09T01:16:53.494Z,44.60
2019-05-09T01:19:24.795Z,42.90
2019-05-09T01:21:54.191Z,38.83
2019-05-09T01:24:23.341Z,36.27
2019-05-09T01:26:54.164Z,41.33
2019-05-09T01:29:23.273Z,41.80
2019-05-09T01:31:54.054Z,49.10
2019-05-09T01:34:26.814Z,53.23
2019-05-09T01:37:05.905Z,58.63
2019-05-09T01:39:35.965Z,52.47
2019-05-09T01:42:05.477Z,49.80
2019-05-09T01:44:34.431Z,56.93
2019-05-09T01:47:03.920Z,44.87
2019-05-09T01:49:34.194Z,50.00
2019-05-09T01:52:03.675Z,49.70
2019-05-09T01:54:33.872Z,47.83
2019-05-09T01:57:03.363Z,39.73
2019-05-09T01:59:34.029Z,29.73
2019-05-09T02:02:08.189Z,38.40
2019-05-09T02:04:34.082Z,29.60
2019-05-09T02:07:04.186Z,33.67
2019-05-09T02:09:34.177Z,41.77
2019-05-09T02:12:04.037Z,48.80
2019-05-09T02:14:39.647Z,69.20
2019-05-09T02:17:15.474Z,106.00
2019-05-09T02:19:44.680Z,29.70
2019-05-09T02:22:31.355Z,89.00
2019-05-09T02:25:00.128Z,99.80
2019-05-09T02:27:28.888Z,99.10
2019-05-09T02:29:57.681Z,91.03
2019-05-09T02:32:26.451Z,115.33
2019-05-09T02:34:55.248Z,121.00
2019-05-09T02:37:28.784Z,114.47
2019-05-09T02:39:59.188Z,121.63
2019-05-09T02:42:28.453Z,118.43
2019-05-09T02:44:59.518Z,60.60
2019-05-09T02:47:28.933Z,78.27
2019-05-09T02:49:58.928Z,42.30
2019-05-09T02:52:28.794Z,48.63
2019-05-09T02:54:58.491Z,62.10
2019-05-09T02:57:29.553Z,78.67
2019-05-09T03:00:28.744Z,71.67
2019-05-09T03:03:04.887Z,102.73
2019-05-09T03:05:33.783Z,121.13
2019-05-09T03:08:02.575Z,61.63
2019-05-09T03:10:31.519Z,57.90
2019-05-09T03:13:00.322Z,30.27
2019-05-09T03:15:29.608Z,39.67
2019-05-09T03:17:59.995Z,45.40
2019-05-09T03:20:51.517Z,25.20
2019-05-09T03:23:20.489Z,27.77
2019-05-09T03:25:49.386Z,30.67
2019-05-09T03:28:40.340Z,29.20
2019-05-09T03:31:10.144Z,26.50
2019-05-09T03:33:40.619Z,32.47
2019-05-09T03:36:09.553Z,25.07
2019-05-09T03:38:38.498Z,31.97
2019-05-09T03:41:08.467Z,38.10
2019-05-09T03:43:37.853Z,38.23
2019-05-09T03:46:18.072Z,26.57
2019-05-09T03:48:49.744Z,28.00
2019-05-09T03:51:18.566Z,26.20
2019-05-09T03:53:48.432Z,27.30
2019-05-09T03:56:20.474Z,20.13
2019-05-09T03:58:49.265Z,24.07
2019-05-09T04:01:18.157Z,29.90
2019-05-09T04:03:48.103Z,26.90
2019-05-09T04:06:18.461Z,28.90
2019-05-09T04:08:48.200Z,38.10
2019-05-09T04:11:18.542Z,25.40
2019-05-09T04:13:53.774Z,30.17
2019-05-09T04:16:22.592Z,22.80
2019-05-09T04:18:51.402Z,23.30
2019-05-09T04:21:20.196Z,25.87
2019-05-09T04:23:48.987Z,24.60
2019-05-09T04:26:28.170Z,25.70
2019-05-09T04:28:57.813Z,25.73
2019-05-09T04:31:27.998Z,16.23
2019-05-09T04:33:57.601Z,19.57
2019-05-09T04:36:38.913Z,23.53
2019-05-09T04:39:17.356Z,22.97
2019-05-09T04:41:43.055Z,23.23
2019-05-09T04:44:19.227Z,23.83
2019-05-09T04:46:48.030Z,20.87
2019-05-09T04:49:19.101Z,16.90
2019-05-09T04:51:47.935Z,19.00
2019-05-09T04:54:17.737Z,20.50
2019-05-09T04:56:47.431Z,20.53
2019-05-09T04:59:17.856Z,20.47
2019-05-09T05:02:12.444Z,16.90
2019-05-09T05:04:41.257Z,16.17
2019-05-09T05:07:10.096Z,17.80
2019-05-09T05:09:38.894Z,16.27
2019-05-09T05:12:08.416Z,17.50
2019-05-09T05:14:38.442Z,15.97
2019-05-09T05:17:11.074Z,18.43
2019-05-09T05:19:38.474Z,16.40
2019-05-09T05:22:30.904Z,14.60
2019-05-09T05:25:01.992Z,14.13
2019-05-09T05:27:30.951Z,14.03
2019-05-09T05:30:02.866Z,13.20
2019-05-09T05:32:43.560Z,13.40
2019-05-09T05:35:18.875Z,13.70
2019-05-09T05:37:47.898Z,11.80
2019-05-09T05:40:17.846Z,12.00
2019-05-09T05:42:47.931Z,11.57
2019-05-09T05:45:18.126Z,12.33
2019-05-09T05:47:59.820Z,11.70
2019-05-09T05:50:28.728Z,10.60
2019-05-09T05:52:57.933Z,9.37
2019-05-09T05:55:27.528Z,10.30
2019-05-09T05:57:57.954Z,8.90
2019-05-09T06:00:28.598Z,9.60
2019-05-09T06:02:58.558Z,9.50
2019-05-09T06:05:27.936Z,8.47
2019-05-09T06:07:57.629Z,9.30
2019-05-09T06:10:28.742Z,8.07
2019-05-09T06:12:57.625Z,7.70
2019-05-09T06:15:28.825Z,8.23
2019-05-09T06:17:57.877Z,8.30
2019-05-09T06:20:28.168Z,8.20
2019-05-09T06:22:58.149Z,7.40
2019-05-09T06:25:30.500Z,7.07
2019-05-09T06:27:58.551Z,7.83
2019-05-09T06:30:29.091Z,7.97
2019-05-09T06:32:58.535Z,8.57
2019-05-09T06:35:28.329Z,7.20
2019-05-09T06:37:58.719Z,7.60
2019-05-09T06:40:28.700Z,9.20
2019-05-09T06:42:59.821Z,10.50
2019-05-09T06:45:41.816Z,9.80
2019-05-09T06:48:12.633Z,9.03
2019-05-09T06:50:41.585Z,9.73
2019-05-09T06:53:10.416Z,8.93
2019-05-09T06:55:39.302Z,8.80
2019-05-09T06:58:27.714Z,9.23
2019-05-09T07:01:18.061Z,8.07
2019-05-09T07:03:48.051Z,7.07
2019-05-09T07:06:38.846Z,6.90
2019-05-09T07:09:33.071Z,7.80
2019-05-09T07:12:02.337Z,6.63
2019-05-09T07:14:34.010Z,6.70
2019-05-09T07:17:03.677Z,5.50
2019-05-09T07:19:32.543Z,5.70
2019-05-09T07:22:09.178Z,5.20
2019-05-09T07:25:00.955Z,5.00
2019-05-09T07:27:28.553Z,4.77
2019-05-09T07:30:00.472Z,4.40
2019-05-09T07:32:31.728Z,5.23
2019-05-09T07:35:02.091Z,5.00
2019-05-09T07:37:30.887Z,5.33
2019-05-09T07:39:59.680Z,5.80
2019-05-09T07:42:28.579Z,6.43
2019-05-09T07:44:59.071Z,5.67
2019-05-09T07:47:28.237Z,4.67
2019-05-09T07:49:58.558Z,4.67
2019-05-09T07:52:28.385Z,3.80
2019-05-09T07:54:58.001Z,3.60
2019-05-09T07:57:28.555Z,4.00
2019-05-09T07:59:58.459Z,3.80
2019-05-09T08:02:28.220Z,4.40
2019-05-09T08:04:57.906Z,3.40
2019-05-09T08:07:29.023Z,4.37
2019-05-09T08:09:57.993Z,4.70
2019-05-09T08:12:28.412Z,4.40
2019-05-09T08:15:10.354Z,3.50
2019-05-09T08:17:28.760Z,3.20
2019-05-09T08:19:58.294Z,3.80
2019-05-09T08:22:32.164Z,3.50
2019-05-09T08:24:57.925Z,4.13
2019-05-09T08:27:30.104Z,4.03
2019-05-09T08:29:58.520Z,4.00
2019-05-09T08:32:28.597Z,4.17
2019-05-09T08:34:57.842Z,4.83
2019-05-09T08:37:28.340Z,4.10
2019-05-09T08:39:57.891Z,4.17
2019-05-09T08:42:26.753Z,3.47
2019-05-09T08:44:57.628Z,3.33
2019-05-09T08:47:27.813Z,4.07
2019-05-09T08:50:11.263Z,3.40
2019-05-09T08:52:40.181Z,3.03
2019-05-09T08:55:09.125Z,3.03
2019-05-09T08:57:37.980Z,3.37
2019-05-09T09:00:08.148Z,3.47
2019-05-09T09:02:37.738Z,3.63
2019-05-09T09:05:08.593Z,2.93
2019-05-09T09:07:38.046Z,3.10
2019-05-09T09:10:08.460Z,3.67
2019-05-09T09:12:38.409Z,3.50
2019-05-09T09:15:07.908Z,3.87
2019-05-09T09:17:38.531Z,3.17
2019-05-09T09:20:08.030Z,3.73
2019-05-09T09:22:37.561Z,3.40
2019-05-09T09:25:07.813Z,3.00
2019-05-09T09:27:38.093Z,3.90
2019-05-09T09:30:17.840Z,2.97
2019-05-09T09:32:38.884Z,2.63
2019-05-09T09:35:09.533Z,2.67
2019-05-09T09:37:48.344Z,2.60
2019-05-09T09:40:09.069Z,2.73
2019-05-09T09:42:39.607Z,2.67
2019-05-09T09:45:08.535Z,2.53
2019-05-09T09:47:39.431Z,2.50
2019-05-09T09:50:08.908Z,3.00
2019-05-09T09:52:38.469Z,2.67
2019-05-09T09:55:09.124Z,2.90
2019-05-09T09:57:38.060Z,2.80
2019-05-09T10:00:26.772Z,2.93
2019-05-09T10:02:55.595Z,2.57
2019-05-09T10:05:24.394Z,3.10
2019-05-09T10:07:53.262Z,3.33
2019-05-09T10:10:33.186Z,2.97
2019-05-09T10:13:04.101Z,2.60
2019-05-09T10:15:54.792Z,2.73
2019-05-09T10:18:34.705Z,2.83
2019-05-09T10:21:08.860Z,2.80
2019-05-09T10:23:37.960Z,2.40
2019-05-09T10:26:08.489Z,2.87
2019-05-09T10:28:38.131Z,3.20
2019-05-09T10:31:07.137Z,2.60
2019-05-09T10:33:37.483Z,2.37
2019-05-09T10:36:08.446Z,2.47
2019-05-09T10:38:38.557Z,2.60
2019-05-09T10:41:11.009Z,2.30
2019-05-09T10:44:08.301Z,2.10
2019-05-09T10:46:58.866Z,2.07
2019-05-09T10:49:24.384Z,2.80
2019-05-09T10:51:53.174Z,1.77
2019-05-09T10:54:22.040Z,2.50
2019-05-09T10:56:50.829Z,2.10
2019-05-09T10:59:19.633Z,2.37
2019-05-09T11:01:49.692Z,2.63
2019-05-09T11:04:18.806Z,1.97
2019-05-09T11:06:47.674Z,2.50
2019-05-09T11:09:18.227Z,2.57
2019-05-09T11:11:48.365Z,2.73
2019-05-09T11:14:32.768Z,1.87
2019-05-09T11:17:07.927Z,2.50
2019-05-09T11:19:28.968Z,2.30
2019-05-09T11:22:04.212Z,2.40
2019-05-09T11:24:42.933Z,2.33
2019-05-09T11:27:08.515Z,2.43
2019-05-09T11:29:39.753Z,2.50
2019-05-09T11:32:09.676Z,2.20
2019-05-09T11:34:48.730Z,2.40
2019-05-09T11:37:17.569Z,2.20
2019-05-09T11:39:48.171Z,2.10
2019-05-09T11:42:33.534Z,1.80
2019-05-09T11:45:02.633Z,2.00
2019-05-09T11:47:46.383Z,1.90
2019-05-09T11:50:32.758Z,2.00
2019-05-09T11:53:04.677Z,2.23
2019-05-09T11:55:36.688Z,1.60
2019-05-09T11:58:04.162Z,2.60
2019-05-09T12:00:33.073Z,2.30
2019-05-09T12:03:09.792Z,2.00
2019-05-09T12:05:49.920Z,2.00
2019-05-09T12:08:18.821Z,1.87
2019-05-09T12:11:08.766Z,2.53
2019-05-09T12:13:49.775Z,2.63
2019-05-09T12:16:28.195Z,2.10
2019-05-09T12:18:58.386Z,1.83
2019-05-09T12:21:28.452Z,2.27
2019-05-09T12:23:58.372Z,1.80
2019-05-09T12:27:12.758Z,2.17
2019-05-09T12:29:41.704Z,2.03
2019-05-09T12:32:11.600Z,2.00
2019-05-09T12:34:40.506Z,2.00
2019-05-09T12:37:15.512Z,1.90
2019-05-09T12:39:48.143Z,1.70
2019-05-09T12:42:18.490Z,1.70
2019-05-09T12:44:49.597Z,1.70
2019-05-09T12:47:19.120Z,1.40
2019-05-09T12:49:48.790Z,1.90
2019-05-09T12:52:18.575Z,1.87
2019-05-09T12:54:48.291Z,1.70
2019-05-09T12:57:19.250Z,2.07
2019-05-09T12:59:52.244Z,1.90
2019-05-09T13:02:18.408Z,2.00
2019-05-09T13:04:47.737Z,2.00
2019-05-09T13:07:16.777Z,1.67
2019-05-09T13:09:52.230Z,1.77
2019-05-09T13:12:18.017Z,1.60
2019-05-09T13:14:48.581Z,1.60
2019-05-09T13:17:29.045Z,1.50
2019-05-09T13:19:58.576Z,1.47
2019-05-09T13:22:28.411Z,1.70
2019-05-09T13:24:58.828Z,1.40
2019-05-09T13:27:28.675Z,2.07
2019-05-09T13:29:57.494Z,1.60
2019-05-09T13:32:28.048Z,1.23
2019-05-09T13:34:57.879Z,1.50
2019-05-09T13:37:29.511Z,1.40
2019-05-09T13:39:57.453Z,1.33
2019-05-09T13:42:28.415Z,1.83
2019-05-09T13:44:56.776Z,1.80
2019-05-09T13:47:27.853Z,1.57
2019-05-09T13:49:56.939Z,1.37
2019-05-09T13:52:27.394Z,1.27
2019-05-09T13:54:58.539Z,1.37
2019-05-09T13:57:27.787Z,1.20
2019-05-09T13:59:58.530Z,1.10
2019-05-09T14:02:29.168Z,1.20
2019-05-09T14:04:58.462Z,1.20
2019-05-09T14:07:27.957Z,1.13
2019-05-09T14:09:56.909Z,1.47
2019-05-09T14:12:25.706Z,1.40
2019-05-09T14:14:54.512Z,1.33
2019-05-09T14:17:42.084Z,1.30
2019-05-09T14:19:53.949Z,1.27
2019-05-09T14:22:22.858Z,1.57
2019-05-09T14:24:51.632Z,1.30
2019-05-09T14:27:28.950Z,1.43
2019-05-09T14:30:00.851Z,1.23
2019-05-09T14:32:34.325Z,1.20
2019-05-09T14:35:18.895Z,1.10
2019-05-09T14:37:48.734Z,1.10
2019-05-09T14:40:18.296Z,1.00
2019-05-09T14:42:49.300Z,1.30
2019-05-09T14:45:18.240Z,0.90
2019-05-09T14:47:47.126Z,0.80
2019-05-09T14:50:18.107Z,0.80
2019-05-09T14:52:49.056Z,0.80
2019-05-09T14:55:17.891Z,0.80
2019-05-09T14:57:47.969Z,0.80
2019-05-09T15:00:18.846Z,0.80
2019-05-09T15:02:48.924Z,1.20
2019-05-09T15:05:18.866Z,1.10
2019-05-09T15:07:53.601Z,0.90
2019-05-09T15:10:24.049Z,1.00
2019-05-09T15:12:52.906Z,0.90
2019-05-09T15:15:21.743Z,1.10
2019-05-09T15:17:53.628Z,0.67
2019-05-09T15:20:22.415Z,1.10
2019-05-09T15:22:51.249Z,0.80
2019-05-09T15:25:20.934Z,0.80
2019-05-09T15:27:50.106Z,0.63
2019-05-09T15:30:19.100Z,0.80
2019-05-09T15:32:51.184Z,0.87
2019-05-09T15:35:18.496Z,0.73
2019-05-09T15:37:48.016Z,0.87
2019-05-09T15:40:17.863Z,0.70
2019-05-09T15:42:47.894Z,0.63
2019-05-09T15:45:18.255Z,0.70
2019-05-09T15:47:48.330Z,0.80
2019-05-09T15:50:22.930Z,0.80
2019-05-09T15:52:48.558Z,0.60
2019-05-09T15:55:17.796Z,0.70
2019-05-09T15:57:48.540Z,0.60
2019-05-09T16:00:19.023Z,0.60
2019-05-09T16:02:48.704Z,0.50
2019-05-09T16:05:18.176Z,0.60
2019-05-09T16:07:48.213Z,0.70
2019-05-09T16:10:17.961Z,0.60
2019-05-09T16:12:48.693Z,1.10
2019-05-09T16:15:18.739Z,0.70
2019-05-09T16:17:48.472Z,0.60
2019-05-09T16:20:36.894Z,0.60
2019-05-09T16:23:00.346Z,0.50
2019-05-09T16:25:35.014Z,0.60
2019-05-09T16:28:04.008Z,0.70
2019-05-09T16:30:32.985Z,0.90
2019-05-09T16:33:11.101Z,0.80
2019-05-09T16:35:40.021Z,0.57
2019-05-09T16:38:10.923Z,0.73
2019-05-09T16:40:43.644Z,0.77
2019-05-09T16:43:12.523Z,0.60
2019-05-09T16:45:41.316Z,0.60
2019-05-09T16:48:11.388Z,0.70
2019-05-09T16:50:56.040Z,0.83
2019-05-09T16:53:11.110Z,0.90
2019-05-09T16:55:43.071Z,0.50
2019-05-09T16:58:11.977Z,0.60
2019-05-09T17:00:44.276Z,0.50
2019-05-09T17:03:13.227Z,0.50
2019-05-09T17:05:42.177Z,0.57
2019-05-09T17:08:11.229Z,0.70
2019-05-09T17:10:40.028Z,0.63
2019-05-09T17:13:08.974Z,0.57
2019-05-09T17:15:38.928Z,0.70
2019-05-09T17:18:10.078Z,0.50
2019-05-09T17:20:44.641Z,0.80
2019-05-09T17:23:16.297Z,0.50
2019-05-09T17:25:47.805Z,0.50
2019-05-09T17:28:17.775Z,0.50
2019-05-09T17:30:49.020Z,0.67
2019-05-09T17:33:16.919Z,0.60
2019-05-09T17:35:48.120Z,0.63
2019-05-09T17:38:18.065Z,0.70
2019-05-09T17:40:48.446Z,0.50
2019-05-09T17:43:18.239Z,0.60
2019-05-09T17:45:47.941Z,0.60
2019-05-09T17:48:18.256Z,0.53
2019-05-09T17:50:47.432Z,0.60
2019-05-09T17:53:18.245Z,0.90
2019-05-09T17:55:47.802Z,0.90
2019-05-09T17:58:27.190Z,0.90
2019-05-09T18:00:48.590Z,0.80
2019-05-09T18:03:18.321Z,1.10
2019-05-09T18:05:48.531Z,0.90
2019-05-09T18:08:18.735Z,1.17
2019-05-09T18:10:48.528Z,2.07
2019-05-09T18:13:23.580Z,1.40
2019-05-09T18:15:48.439Z,1.43
2019-05-09T18:18:18.462Z,1.10
2019-05-09T18:20:47.680Z,1.10
2019-05-09T18:23:17.690Z,0.90
2019-05-09T18:25:49.217Z,0.90
2019-05-09T18:28:17.532Z,1.00
2019-05-09T18:30:47.827Z,0.97
2019-05-09T18:33:22.324Z,1.20
2019-05-09T18:35:51.343Z,0.70
2019-05-09T18:38:28.099Z,0.90
2019-05-09T18:40:57.917Z,0.80
2019-05-09T18:43:27.564Z,0.83
2019-05-09T18:45:57.803Z,0.70
2019-05-09T18:48:27.856Z,0.67
2019-05-09T18:50:56.966Z,0.70
2019-05-09T18:53:25.756Z,0.90
2019-05-09T18:55:54.565Z,0.70
2019-05-09T18:58:23.501Z,0.80
2019-05-09T19:00:52.616Z,0.70
2019-05-09T19:03:21.444Z,0.77
2019-05-09T19:05:50.404Z,0.87
2019-05-09T19:08:19.262Z,0.70
2019-05-09T19:10:51.968Z,0.70
2019-05-09T19:13:18.617Z,0.80
2019-05-09T19:16:09.325Z,0.73
2019-05-09T19:18:53.174Z,1.00
2019-05-09T19:21:31.654Z,1.07
2019-05-09T19:24:00.437Z,1.00
2019-05-09T19:26:39.057Z,0.83
2019-05-09T19:29:09.187Z,0.80
2019-05-09T19:31:38.541Z,0.80
2019-05-09T19:34:07.671Z,0.90
2019-05-09T19:36:36.864Z,0.80
2019-05-09T19:39:12.149Z,0.83
2019-05-09T19:41:41.035Z,1.00
2019-05-09T19:44:09.828Z,1.10
2019-05-09T19:46:38.646Z,1.03
2019-05-09T19:49:07.511Z,1.00
2019-05-09T19:51:36.552Z,0.90
2019-05-09T19:54:06.601Z,0.90
2019-05-09T19:56:35.409Z,1.10
2019-05-09T19:59:07.359Z,1.27
2019-05-09T20:01:35.522Z,1.10
2019-05-09T20:04:04.485Z,1.60
2019-05-09T20:06:33.316Z,1.10
2019-05-09T20:09:02.640Z,1.43
2019-05-09T20:11:59.905Z,1.20
2019-05-09T20:14:32.260Z,1.30
2019-05-09T20:17:01.132Z,1.50
2019-05-09T20:19:30.087Z,1.10
2019-05-09T20:21:58.939Z,1.27
2019-05-09T20:24:27.878Z,1.03
2019-05-09T20:26:56.694Z,1.27
2019-05-09T20:29:25.541Z,1.20
2019-05-09T20:31:54.337Z,1.50
2019-05-09T20:34:23.189Z,1.67
2019-05-09T20:36:52.023Z,1.33
2019-05-09T20:39:21.032Z,1.20
2019-05-09T20:41:50.113Z,1.40
2019-05-09T20:44:19.083Z,1.70
2019-05-09T20:46:48.057Z,1.47
2019-05-09T20:49:17.050Z,1.23
2019-05-09T20:51:46.087Z,1.40
2019-05-09T20:54:20.929Z,1.50
2019-05-09T20:56:45.919Z,1.40
2019-05-09T20:59:14.982Z,1.63
2019-05-09T21:01:43.985Z,1.70
2019-05-09T21:04:13.027Z,1.60
2019-05-09T21:06:41.992Z,1.73
2019-05-09T21:09:11.053Z,1.67
2019-05-09T21:11:40.012Z,1.73
2019-05-09T21:14:09.076Z,1.77
2019-05-09T21:16:38.052Z,1.67
2019-05-09T21:19:07.189Z,1.80
2019-05-09T21:21:36.178Z,1.93
2019-05-09T21:24:05.284Z,1.80
2019-05-09T21:26:34.336Z,1.33
2019-05-09T21:29:03.522Z,1.50
2019-05-09T21:31:32.485Z,1.60
2019-05-09T21:34:01.461Z,1.93
2019-05-09T21:36:30.241Z,1.60
2019-05-09T21:38:59.038Z,1.90
2019-05-09T21:41:27.837Z,2.20
2019-05-09T21:43:56.639Z,2.07
2019-05-09T21:46:25.425Z,2.00
2019-05-09T21:48:54.218Z,2.00
2019-05-09T21:51:22.999Z,2.67
2019-05-09T21:53:51.891Z,2.20
2019-05-09T21:56:20.828Z,2.27
2019-05-09T21:58:49.628Z,2.40
2019-05-09T22:01:19.463Z,2.70
2019-05-09T22:03:48.592Z,2.50
2019-05-09T22:06:17.460Z,2.27
2019-05-09T22:08:46.329Z,2.30
2019-05-09T22:11:15.265Z,2.20
2019-05-09T22:13:44.136Z,2.33
2019-05-09T22:16:12.999Z,2.70
2019-05-09T22:18:41.881Z,2.40
2019-05-09T22:21:21.497Z,3.40
2019-05-09T22:23:56.601Z,2.90
2019-05-09T22:26:21.210Z,2.57
2019-05-09T22:28:50.006Z,2.63
2019-05-09T22:31:18.869Z,2.57
2019-05-09T22:33:47.743Z,2.97
2019-05-09T22:36:16.737Z,2.80
2019-05-09T22:38:45.562Z,2.63
2019-05-09T22:41:14.351Z,2.57
2019-05-09T22:43:43.228Z,2.50
2019-05-09T22:46:12.017Z,2.50
2019-05-09T22:48:40.826Z,2.77
2019-05-09T22:51:09.665Z,2.53
2019-05-09T22:53:38.455Z,2.50
2019-05-09T22:56:07.322Z,3.60
2019-05-09T22:58:36.136Z,3.40
2019-05-09T23:01:05.047Z,2.73
2019-05-09T23:03:33.916Z,3.47
2019-05-09T23:06:02.705Z,3.60
2019-05-09T23:08:31.527Z,3.20
2019-05-09T23:11:00.304Z,3.57
2019-05-09T23:13:29.101Z,3.60
2019-05-09T23:15:57.885Z,3.90
2019-05-09T23:18:26.669Z,3.70
2019-05-09T23:20:57.417Z,4.47
2019-05-09T23:23:34.260Z,4.40
2019-05-09T23:26:03.236Z,4.43
2019-05-09T23:28:32.102Z,4.90
2019-05-09T23:31:03.721Z,3.93
2019-05-09T23:33:36.214Z,4.90
2019-05-09T23:36:05.191Z,4.80
2019-05-09T23:38:35.653Z,4.60
2019-05-09T23:41:04.685Z,5.10
2019-05-09T23:43:33.593Z,4.80
2019-05-09T23:46:02.471Z,4.47
2019-05-09T23:48:31.323Z,5.20
2019-05-09T23:51:00.145Z,5.10
2019-05-09T23:53:36.100Z,4.40
2019-05-09T23:56:23.282Z,4.77
2019-05-09T23:59:10.227Z,4.90
